createdAt,value
2023-01-27T00:02:16.167Z,24.87
2023-01-27T00:05:20.579Z,24.33
2023-01-27T00:08:23.585Z,34.30
2023-01-27T00:11:44.007Z,29.23
2023-01-27T00:14:46.960Z,29.67
2023-01-27T00:17:49.960Z,33.07
2023-01-27T00:21:12.594Z,25.63
2023-01-27T00:24:33.807Z,27.70
2023-01-27T00:27:37.717Z,29.07
2023-01-27T00:30:40.687Z,28.60
2023-01-27T00:33:45.867Z,25.43
2023-01-27T00:36:52.879Z,28.20
2023-01-27T00:39:55.958Z,26.43
2023-01-27T00:42:59.028Z,29.20
2023-01-27T00:46:02.134Z,31.23
2023-01-27T00:49:05.293Z,27.80
2023-01-27T00:52:09.595Z,33.33
2023-01-27T00:55:15.346Z,26.53
2023-01-27T00:58:18.384Z,33.83
2023-01-27T01:01:22.411Z,36.00
2023-01-27T01:04:26.798Z,32.03
2023-01-27T01:07:31.456Z,31.30
2023-01-27T01:10:37.116Z,32.77
2023-01-27T01:13:40.568Z,31.70
2023-01-27T01:16:43.538Z,32.30
2023-01-27T01:19:52.656Z,30.97
2023-01-27T01:23:00.447Z,33.27
2023-01-27T01:26:03.948Z,35.60
2023-01-27T01:29:07.227Z,33.17
2023-01-27T01:32:10.901Z,28.43
2023-01-27T01:35:14.294Z,29.93
2023-01-27T01:38:18.636Z,30.00
2023-01-27T01:41:22.180Z,28.63
2023-01-27T01:44:28.015Z,31.93
2023-01-27T01:47:31.292Z,30.63
2023-01-27T01:50:36.321Z,34.70
2023-01-27T01:53:48.333Z,31.13
2023-01-27T01:56:57.537Z,27.20
2023-01-27T02:00:07.951Z,26.43
2023-01-27T02:03:17.320Z,31.90
2023-01-27T02:06:21.109Z,30.00
2023-01-27T02:09:25.939Z,32.33
2023-01-27T02:12:29.379Z,27.10
2023-01-27T02:15:33.442Z,33.70
2023-01-27T02:18:36.720Z,29.83
2023-01-27T02:21:39.836Z,29.20
2023-01-27T02:24:53.811Z,30.00
2023-01-27T02:27:58.146Z,29.33
2023-01-27T02:31:03.226Z,24.03
2023-01-27T02:34:12.100Z,27.63
2023-01-27T02:37:16.430Z,29.63
2023-01-27T02:40:20.931Z,25.37
2023-01-27T02:43:25.294Z,23.90
2023-01-27T02:46:28.856Z,27.70
2023-01-27T02:49:41.434Z,24.73
2023-01-27T02:52:45.240Z,28.77
2023-01-27T02:55:48.624Z,23.47
2023-01-27T02:58:55.528Z,23.83
2023-01-27T03:02:04.905Z,23.20
2023-01-27T03:05:08.753Z,24.93
2023-01-27T03:08:12.087Z,27.83
2023-01-27T03:11:35.580Z,29.50
2023-01-27T03:14:58.645Z,27.30
2023-01-27T03:18:13.914Z,25.80
2023-01-27T03:21:18.985Z,28.03
2023-01-27T03:24:23.219Z,29.77
2023-01-27T03:27:29.151Z,23.60
2023-01-27T03:30:52.311Z,30.03
2023-01-27T03:34:00.963Z,27.33
2023-01-27T03:37:33.017Z,25.30
2023-01-27T03:40:53.732Z,25.60
2023-01-27T03:44:14.435Z,27.83
2023-01-27T03:47:18.943Z,25.37
2023-01-27T03:50:31.201Z,24.73
2023-01-27T03:53:34.644Z,20.63
2023-01-27T03:56:37.594Z,22.37
2023-01-27T03:59:40.558Z,23.03
2023-01-27T04:03:02.411Z,22.33
2023-01-27T04:06:24.255Z,26.07
2023-01-27T04:09:30.458Z,18.93
2023-01-27T04:12:32.524Z,24.33
2023-01-27T04:15:35.644Z,23.03
2023-01-27T04:18:39.958Z,22.57
2023-01-27T04:21:43.511Z,25.37
2023-01-27T04:24:50.150Z,24.90
2023-01-27T04:27:53.212Z,22.17
2023-01-27T04:30:56.842Z,24.13
2023-01-27T04:34:01.185Z,27.53
2023-01-27T04:37:04.931Z,23.30
2023-01-27T04:40:10.248Z,23.30
2023-01-27T04:43:13.587Z,25.20
2023-01-27T04:46:16.680Z,23.07
2023-01-27T04:49:21.031Z,25.90
2023-01-27T04:52:24.039Z,26.13
2023-01-27T04:55:27.460Z,25.63
2023-01-27T04:58:30.678Z,22.40
2023-01-27T05:01:36.032Z,23.63
2023-01-27T05:04:40.363Z,20.20
2023-01-27T05:07:43.427Z,21.67
2023-01-27T05:10:46.461Z,22.00
2023-01-27T05:13:49.805Z,18.87
2023-01-27T05:16:55.222Z,19.67
2023-01-27T05:20:00.342Z,21.00
2023-01-27T05:23:21.052Z,23.70
2023-01-27T05:26:26.581Z,17.70
2023-01-27T05:29:29.552Z,18.73
2023-01-27T05:32:32.504Z,18.83
2023-01-27T05:35:36.887Z,21.03
2023-01-27T05:38:40.153Z,21.37
2023-01-27T05:41:43.146Z,22.03
2023-01-27T05:44:46.168Z,15.80
2023-01-27T05:47:54.394Z,19.87
2023-01-27T05:51:00.143Z,19.77
2023-01-27T05:54:03.660Z,21.43
2023-01-27T05:57:06.723Z,19.20
2023-01-27T06:00:11.895Z,18.13
2023-01-27T06:03:18.342Z,21.13
2023-01-27T06:06:24.706Z,24.23
2023-01-27T06:09:27.957Z,25.80
2023-01-27T06:12:30.892Z,22.30
2023-01-27T06:15:35.923Z,23.97
2023-01-27T06:18:39.792Z,30.17
2023-01-27T06:21:44.196Z,25.20
2023-01-27T06:24:47.375Z,26.20
2023-01-27T06:27:50.340Z,23.17
2023-01-27T06:30:53.558Z,20.83
2023-01-27T06:33:57.080Z,22.63
2023-01-27T06:37:01.666Z,20.33
2023-01-27T06:40:05.517Z,23.50
2023-01-27T06:43:14.065Z,20.23
2023-01-27T06:46:17.225Z,22.20
2023-01-27T06:49:27.551Z,21.50
2023-01-27T06:52:35.252Z,21.97
2023-01-27T06:55:41.747Z,21.70
2023-01-27T06:58:45.131Z,19.53
2023-01-27T07:01:57.332Z,27.00
2023-01-27T07:05:00.576Z,27.53
2023-01-27T07:08:04.917Z,27.37
2023-01-27T07:11:08.320Z,25.00
2023-01-27T07:14:11.333Z,22.63
2023-01-27T07:17:15.078Z,21.83
2023-01-27T07:20:19.849Z,23.33
2023-01-27T07:23:24.379Z,24.87
2023-01-27T07:26:27.676Z,23.03
2023-01-27T07:29:31.399Z,29.43
2023-01-27T07:32:34.590Z,23.67
2023-01-27T07:35:39.159Z,25.13
2023-01-27T07:38:43.724Z,31.53
2023-01-27T07:41:50.187Z,30.97
2023-01-27T07:44:53.657Z,24.90
2023-01-27T07:48:02.248Z,27.40
2023-01-27T07:51:05.839Z,24.30
2023-01-27T07:54:10.449Z,24.43
2023-01-27T07:57:13.719Z,25.73
2023-01-27T08:00:18.689Z,30.37
2023-01-27T08:03:24.868Z,28.83
2023-01-27T08:06:28.050Z,23.77
2023-01-27T08:09:35.267Z,30.00
2023-01-27T08:12:38.430Z,21.10
2023-01-27T08:15:41.534Z,20.20
2023-01-27T08:18:44.919Z,20.13
2023-01-27T08:21:48.182Z,22.10
2023-01-27T08:24:55.577Z,21.57
2023-01-27T08:27:59.759Z,23.40
2023-01-27T08:31:08.119Z,20.27
2023-01-27T08:34:12.008Z,19.50
2023-01-27T08:37:15.525Z,20.23
2023-01-27T08:40:20.384Z,18.00
2023-01-27T08:43:23.484Z,21.93
2023-01-27T08:46:27.067Z,20.17
2023-01-27T08:49:30.448Z,23.37
2023-01-27T08:52:33.691Z,19.70
2023-01-27T08:55:38.071Z,20.17
2023-01-27T08:58:52.292Z,19.77
2023-01-27T09:01:55.600Z,23.87
2023-01-27T09:04:59.035Z,19.77
2023-01-27T09:08:02.391Z,15.13
2023-01-27T09:11:16.179Z,17.03
2023-01-27T09:14:22.327Z,15.87
2023-01-27T09:17:26.004Z,15.53
2023-01-27T09:20:29.403Z,16.27
2023-01-27T09:23:34.083Z,18.43
2023-01-27T09:26:38.686Z,15.07
2023-01-27T09:29:43.906Z,13.13
2023-01-27T09:32:47.613Z,14.70
2023-01-27T09:36:00.772Z,13.57
2023-01-27T09:39:08.447Z,11.57
2023-01-27T09:42:42.490Z,12.90
2023-01-27T09:46:12.880Z,14.57
2023-01-27T09:49:40.269Z,12.60
2023-01-27T09:53:12.311Z,14.23
2023-01-27T09:56:23.377Z,14.00
2023-01-27T09:59:55.900Z,13.80
2023-01-27T10:03:26.938Z,12.20
2023-01-27T10:06:50.644Z,14.00
2023-01-27T10:10:09.535Z,12.90
2023-01-27T10:13:25.748Z,12.80
2023-01-27T10:16:52.086Z,16.13
2023-01-27T10:20:16.003Z,12.03
2023-01-27T10:23:38.221Z,12.27
2023-01-27T10:26:44.015Z,11.50
2023-01-27T10:29:52.287Z,11.57
2023-01-27T10:33:08.672Z,9.80
2023-01-27T10:36:27.014Z,9.30
2023-01-27T10:39:44.111Z,9.93
2023-01-27T10:42:56.234Z,10.67
2023-01-27T10:46:10.050Z,8.87
2023-01-27T10:49:24.085Z,12.33
2023-01-27T10:52:34.509Z,9.37
2023-01-27T10:55:54.093Z,9.53
2023-01-27T10:59:05.649Z,10.63
2023-01-27T11:02:20.323Z,9.23
2023-01-27T11:05:34.724Z,13.73
2023-01-27T11:08:42.040Z,9.27
2023-01-27T11:11:47.254Z,7.60
2023-01-27T11:14:56.561Z,9.63
2023-01-27T11:18:28.852Z,9.17
2023-01-27T11:21:37.189Z,6.47
2023-01-27T11:24:49.203Z,7.67
2023-01-27T11:28:06.508Z,9.23
2023-01-27T11:31:23.489Z,6.37
2023-01-27T11:34:34.092Z,8.23
2023-01-27T11:37:41.806Z,7.47
2023-01-27T11:40:46.877Z,6.67
2023-01-27T11:43:50.576Z,9.57
2023-01-27T11:46:57.131Z,6.80
2023-01-27T11:50:04.461Z,7.83
2023-01-27T11:53:18.716Z,7.87
2023-01-27T11:56:25.303Z,7.47
2023-01-27T11:59:32.745Z,9.60
2023-01-27T12:02:44.793Z,7.07
2023-01-27T12:05:58.930Z,14.23
2023-01-27T12:09:31.003Z,9.67
2023-01-27T12:12:38.489Z,8.80
2023-01-27T12:15:49.511Z,6.20
2023-01-27T12:19:01.085Z,12.13
2023-01-27T12:22:12.274Z,8.37
2023-01-27T12:25:23.098Z,9.20
2023-01-27T12:28:31.160Z,8.23
2023-01-27T12:31:47.102Z,6.00
2023-01-27T12:34:56.441Z,8.43
2023-01-27T12:38:03.260Z,10.93
2023-01-27T12:41:10.908Z,12.43
2023-01-27T12:44:23.300Z,7.87
2023-01-27T12:47:35.493Z,7.60
2023-01-27T12:50:41.170Z,8.33
2023-01-27T12:53:44.742Z,9.60
2023-01-27T12:56:50.220Z,14.93
2023-01-27T12:59:57.595Z,11.97
2023-01-27T13:03:08.119Z,12.03
2023-01-27T13:06:16.746Z,10.93
2023-01-27T13:09:28.384Z,10.70
2023-01-27T13:12:52.522Z,9.73
2023-01-27T13:15:59.186Z,11.03
2023-01-27T13:19:02.743Z,16.33
2023-01-27T13:22:17.694Z,11.67
2023-01-27T13:25:27.421Z,13.57
2023-01-27T13:28:52.173Z,14.93
2023-01-27T13:32:07.142Z,11.73
2023-01-27T13:35:23.433Z,12.20
2023-01-27T13:38:35.862Z,12.43
2023-01-27T13:41:45.876Z,10.40
2023-01-27T13:44:58.006Z,11.13
2023-01-27T13:48:06.069Z,12.30
2023-01-27T13:51:12.676Z,10.90
2023-01-27T13:54:16.585Z,13.60
2023-01-27T13:57:39.999Z,8.53
2023-01-27T14:00:54.441Z,11.30
2023-01-27T14:04:28.749Z,9.83
2023-01-27T14:07:43.815Z,14.13
2023-01-27T14:11:02.461Z,7.70
2023-01-27T14:14:24.510Z,8.53
2023-01-27T14:17:40.834Z,9.47
2023-01-27T14:20:59.960Z,9.40
2023-01-27T14:24:13.568Z,10.47
2023-01-27T14:27:26.697Z,12.90
2023-01-27T14:30:37.750Z,17.50
2023-01-27T14:34:01.721Z,5.83
2023-01-27T14:37:16.443Z,11.87
2023-01-27T14:40:24.660Z,9.43
2023-01-27T14:43:38.445Z,8.83
2023-01-27T14:46:57.408Z,11.00
2023-01-27T14:50:15.886Z,9.83
2023-01-27T14:53:42.460Z,11.67
2023-01-27T14:57:05.963Z,6.27
2023-01-27T15:00:28.777Z,6.73
2023-01-27T15:03:52.196Z,8.23
2023-01-27T15:07:03.942Z,7.23
2023-01-27T15:10:22.906Z,7.13
2023-01-27T15:13:56.420Z,12.80
2023-01-27T15:17:22.094Z,6.73
2023-01-27T15:20:54.526Z,6.70
2023-01-27T15:24:18.062Z,13.47
2023-01-27T15:27:23.397Z,5.23
2023-01-27T15:30:29.429Z,7.73
2023-01-27T15:33:54.039Z,7.40
2023-01-27T15:37:03.128Z,6.17
2023-01-27T15:40:17.650Z,7.43
2023-01-27T15:43:22.877Z,6.17
2023-01-27T15:46:34.933Z,8.77
2023-01-27T15:49:42.994Z,5.47
2023-01-27T15:52:47.992Z,8.47
2023-01-27T15:55:55.731Z,9.63
2023-01-27T15:59:04.944Z,6.63
2023-01-27T16:02:17.858Z,7.00
2023-01-27T16:05:27.171Z,5.33
2023-01-27T16:08:33.199Z,6.80
2023-01-27T16:11:44.020Z,12.47
2023-01-27T16:14:47.535Z,9.07
2023-01-27T16:18:26.247Z,4.87
2023-01-27T16:21:49.466Z,5.53
2023-01-27T16:24:56.758Z,7.00
2023-01-27T16:28:09.837Z,6.70
2023-01-27T16:31:22.802Z,9.03
2023-01-27T16:34:33.394Z,6.90
2023-01-27T16:37:39.442Z,5.63
2023-01-27T16:40:50.545Z,7.43
2023-01-27T16:43:58.955Z,8.50
2023-01-27T16:47:16.563Z,11.57
2023-01-27T16:50:36.407Z,7.50
2023-01-27T16:53:44.036Z,8.50
2023-01-27T16:56:51.866Z,9.17
2023-01-27T16:59:59.641Z,9.20
2023-01-27T17:03:09.532Z,7.63
2023-01-27T17:06:17.007Z,14.17
2023-01-27T17:09:26.027Z,10.17
2023-01-27T17:12:35.353Z,6.83
2023-01-27T17:15:41.589Z,9.57
2023-01-27T17:18:52.627Z,10.23
2023-01-27T17:21:59.187Z,6.43
2023-01-27T17:25:10.842Z,5.90
2023-01-27T17:28:21.277Z,9.67
2023-01-27T17:31:26.261Z,11.93
2023-01-27T17:34:29.562Z,8.80
2023-01-27T17:37:33.405Z,7.87
2023-01-27T17:40:41.155Z,8.27
2023-01-27T17:43:45.843Z,6.40
2023-01-27T17:46:50.379Z,6.53
2023-01-27T17:49:53.400Z,7.70
2023-01-27T17:52:57.531Z,6.43
2023-01-27T17:56:01.702Z,9.00
2023-01-27T17:59:10.340Z,10.97
2023-01-27T18:02:23.444Z,11.90
2023-01-27T18:05:31.774Z,8.93
2023-01-27T18:08:36.031Z,8.67
2023-01-27T18:11:39.121Z,7.10
2023-01-27T18:14:42.302Z,7.17
2023-01-27T18:17:59.278Z,7.30
2023-01-27T18:21:07.659Z,4.83
2023-01-27T18:24:20.980Z,6.70
2023-01-27T18:27:31.353Z,5.80
2023-01-27T18:30:34.731Z,9.33
2023-01-27T18:33:41.662Z,8.23
2023-01-27T18:36:54.559Z,6.47
2023-01-27T18:40:00.097Z,7.70
2023-01-27T18:43:05.593Z,6.97
2023-01-27T18:46:11.712Z,9.40
2023-01-27T18:49:16.101Z,9.27
2023-01-27T18:52:19.198Z,10.40
2023-01-27T18:55:24.562Z,6.10
2023-01-27T18:58:27.546Z,7.43
2023-01-27T19:01:30.813Z,7.63
2023-01-27T19:04:35.274Z,10.27
2023-01-27T19:07:38.380Z,6.83
2023-01-27T19:10:41.624Z,8.43
2023-01-27T19:13:45.718Z,9.60
2023-01-27T19:16:48.663Z,12.27
2023-01-27T19:19:52.981Z,9.47
2023-01-27T19:22:57.828Z,7.40
2023-01-27T19:26:06.546Z,9.23
2023-01-27T19:29:13.736Z,8.37
2023-01-27T19:32:17.357Z,10.30
2023-01-27T19:35:22.647Z,12.37
2023-01-27T19:38:28.756Z,9.73
2023-01-27T19:41:31.899Z,7.90
2023-01-27T19:44:35.135Z,11.43
2023-01-27T19:47:38.122Z,10.53
2023-01-27T19:50:42.658Z,7.53
2023-01-27T19:53:46.188Z,13.23
2023-01-27T19:56:49.404Z,10.37
2023-01-27T19:59:55.216Z,9.43
2023-01-27T20:02:58.743Z,10.37
2023-01-27T20:06:03.818Z,10.10
2023-01-27T20:09:06.816Z,9.83
2023-01-27T20:12:14.388Z,11.23
2023-01-27T20:15:19.136Z,10.40
2023-01-27T20:18:24.003Z,13.67
2023-01-27T20:21:31.345Z,10.30
2023-01-27T20:24:36.434Z,17.03
2023-01-27T20:27:39.523Z,8.77
2023-01-27T20:30:42.973Z,10.43
2023-01-27T20:33:49.863Z,9.93
2023-01-27T20:36:54.160Z,8.80
2023-01-27T20:39:57.241Z,9.20
2023-01-27T20:43:02.274Z,13.40
2023-01-27T20:46:06.224Z,7.87
2023-01-27T20:49:09.216Z,7.13
2023-01-27T20:52:13.493Z,7.30
2023-01-27T20:55:19.278Z,7.73
2023-01-27T20:58:22.348Z,11.17
2023-01-27T21:01:25.466Z,14.30
2023-01-27T21:04:28.840Z,8.47
2023-01-27T21:07:33.164Z,7.97
2023-01-27T21:10:36.343Z,7.37
2023-01-27T21:13:39.636Z,8.53
2023-01-27T21:16:42.722Z,12.27
2023-01-27T21:19:45.746Z,8.57
2023-01-27T21:22:51.406Z,8.43
2023-01-27T21:25:55.407Z,9.70
2023-01-27T21:28:58.366Z,8.23
2023-01-27T21:32:01.565Z,9.43
2023-01-27T21:35:05.251Z,6.77
2023-01-27T21:38:09.748Z,8.67
2023-01-27T21:41:36.580Z,10.07
2023-01-27T21:44:59.164Z,8.23
2023-01-27T21:48:02.347Z,6.93
2023-01-27T21:51:05.522Z,14.33
2023-01-27T21:54:10.242Z,10.87
2023-01-27T21:57:13.215Z,9.30
2023-01-27T22:00:19.955Z,7.03
2023-01-27T22:03:23.933Z,7.27
2023-01-27T22:06:27.417Z,14.70
2023-01-27T22:09:31.783Z,9.93
2023-01-27T22:12:35.873Z,14.87
2023-01-27T22:15:38.878Z,9.27
2023-01-27T22:18:42.185Z,6.77
2023-01-27T22:21:45.806Z,9.37
2023-01-27T22:24:50.109Z,11.03
2023-01-27T22:27:55.331Z,10.67
2023-01-27T22:31:02.382Z,12.90
2023-01-27T22:34:05.666Z,11.07
2023-01-27T22:37:08.654Z,10.47
2023-01-27T22:40:14.291Z,8.23
2023-01-27T22:43:17.240Z,10.03
2023-01-27T22:46:20.240Z,10.00
2023-01-27T22:49:23.673Z,13.77
2023-01-27T22:52:27.108Z,12.10
2023-01-27T22:55:31.452Z,12.57
2023-01-27T22:58:37.855Z,11.03
2023-01-27T23:01:41.141Z,13.27
2023-01-27T23:04:48.564Z,12.00
2023-01-27T23:07:51.818Z,11.03
2023-01-27T23:11:01.314Z,11.47
2023-01-27T23:14:04.628Z,12.57
2023-01-27T23:17:07.877Z,10.63
2023-01-27T23:20:12.875Z,10.43
2023-01-27T23:23:17.068Z,9.60
2023-01-27T23:26:21.508Z,10.30
2023-01-27T23:29:26.431Z,10.13
2023-01-27T23:32:30.220Z,10.87
2023-01-27T23:35:33.333Z,11.40
2023-01-27T23:38:37.052Z,10.57
2023-01-27T23:41:41.343Z,9.13
2023-01-27T23:44:44.401Z,11.23
2023-01-27T23:47:47.382Z,10.97
2023-01-27T23:50:51.811Z,9.43
2023-01-27T23:53:55.415Z,9.30
2023-01-27T23:56:59.964Z,10.30
